Time;durP1;ratioP1;P1;durP2;ratioP2;P2;SDS_P1;SDS_P2;PMS_P1;PMS_P2;Temp;Humidity;BMP_temperature;BMP_pressure;BME280_temperature;BME280_humidity;BME280_pressure;Samples;Min_cycle;Max_cycle;Signal;HPM_P1;HPM_P2
2022/01/20 00:01:47;;;;;;;13.93;9.27;;;;;;;2.68;71.64;99928.75;5029876;28;20225;-67
2022/01/20 00:09:32;;;;;;;12.20;9.97;;;;;;;1.41;73.72;99925.72;5042045;28;20238;-67
2022/01/20 00:26:10;;;;;;;12.60;7.87;;;;;;;2.12;73.21;99953.09;5033489;28;20231;-66
2022/01/20 00:28:43;;;;;;;8.77;6.80;;;;;;;1.93;73.35;99960.63;5047646;28;20231;-67
2022/01/20 00:34:09;;;;;;;11.03;7.17;;;;;;;2.41;71.47;99951.88;5045136;28;20610;-67
2022/01/20 00:39:23;;;;;;;10.50;7.90;;;;;;;2.57;70.47;99934.00;5047774;28;20245;-67
2022/01/20 00:41:50;;;;;;;10.93;7.67;;;;;;;2.72;69.79;99929.34;5046449;28;20224;-67
2022/01/20 00:44:17;;;;;;;11.20;8.23;;;;;;;2.36;71.39;99965.41;5046446;28;20231;-67
2022/01/20 00:46:46;;;;;;;10.67;8.20;;;;;;;2.04;71.89;99958.06;5050311;28;20234;-67
2022/01/20 00:49:13;;;;;;;11.10;8.17;;;;;;;2.45;71.48;99972.59;5044168;28;20232;-66
2022/01/20 00:51:40;;;;;;;11.63;8.27;;;;;;;1.56;74.20;99982.50;5045926;28;20234;-67
2022/01/20 00:54:07;;;;;;;12.27;9.43;;;;;;;1.00;76.42;100001.22;5040931;28;20231;-67
2022/01/20 00:56:34;;;;;;;11.30;8.90;;;;;;;1.38;75.44;99989.00;5045895;28;20222;-66
2022/01/20 00:59:01;;;;;;;10.77;8.23;;;;;;;2.04;73.09;99979.13;5043363;28;20238;-67
2022/01/20 01:01:28;;;;;;;12.43;8.83;;;;;;;0.86;75.14;99961.06;5044115;28;20241;-67
2022/01/20 01:03:55;;;;;;;9.43;7.47;;;;;;;0.57;78.49;100011.13;5041399;28;20219;-66
2022/01/20 01:08:49;;;;;;;10.67;8.13;;;;;;;1.67;75.33;100002.81;5046781;28;20656;-67
2022/01/20 01:11:17;;;;;;;9.87;8.10;;;;;;;1.81;73.71;99978.16;5046993;28;20226;-66
2022/01/20 01:13:44;;;;;;;10.40;8.50;;;;;;;-0.22;79.57;99955.00;5043621;28;20222;-67
2022/01/20 01:16:13;;;;;;;10.87;8.80;;;;;;;1.64;75.72;100010.06;5043247;28;20229;-67
2022/01/20 01:21:41;;;;;;;10.13;8.10;;;;;;;0.94;76.40;99990.28;5042866;28;20607;-67
2022/01/20 01:24:08;;;;;;;9.30;6.50;;;;;;;0.72;78.56;100028.50;5043746;28;20227;-67
2022/01/20 01:26:35;;;;;;;11.63;8.37;;;;;;;0.98;76.92;100016.25;5041305;28;20230;-66
2022/01/20 01:29:12;;;;;;;11.90;8.40;;;;;;;1.35;76.42;100018.16;5047395;28;20729;-67
2022/01/20 01:31:40;;;;;;;10.20;7.43;;;;;;;1.48;74.98;100010.28;5042953;28;20613;-67
2022/01/20 01:34:13;;;;;;;11.77;8.40;;;;;;;1.59;75.12;100013.00;5044592;28;20233;-66
2022/01/20 01:36:51;;;;;;;10.97;8.33;;;;;;;0.54;77.48;100011.31;5048299;28;20212;-67
2022/01/20 01:39:18;;;;;;;11.33;8.43;;;;;;;1.05;76.25;100007.97;5057169;28;20246;-66
2022/01/20 01:41:46;;;;;;;13.63;8.97;;;;;;;1.41;75.68;100009.84;5045479;28;20234;-66
2022/01/20 01:44:20;;;;;;;8.63;5.43;;;;;;;1.34;74.00;99983.13;5052629;28;20225;-67
2022/01/20 01:46:48;;;;;;;12.50;9.60;;;;;;;1.71;73.97;99988.47;5066580;28;20744;-67
2022/01/20 01:49:17;;;;;;;10.47;8.73;;;;;;;1.29;73.49;99972.09;5057709;28;20329;-67
2022/01/20 01:51:44;;;;;;;11.57;8.97;;;;;;;1.09;76.05;100020.78;5067106;28;20239;-67
2022/01/20 01:54:13;;;;;;;11.23;8.63;;;;;;;1.31;75.13;100021.94;5066456;28;20886;-67
2022/01/20 01:56:41;;;;;;;9.23;7.27;;;;;;;-0.62;79.02;99973.22;5046514;28;20222;-67
2022/01/20 01:59:09;;;;;;;9.20;7.67;;;;;;;1.35;75.07;100005.84;5047563;28;20238;-67
2022/01/20 02:01:38;;;;;;;12.50;9.13;;;;;;;0.02;77.04;99992.78;5046517;28;20256;-67
2022/01/20 02:04:24;;;;;;;9.93;7.97;;;;;;;0.96;75.46;100015.53;5052143;28;20225;-67
2022/01/20 02:20:20;;;;;;;10.63;8.60;;;;;;;0.59;75.14;100009.25;5026630;28;20236;-67
2022/01/20 02:22:47;;;;;;;10.67;8.53;;;;;;;1.07;76.51;100048.94;5026019;28;20229;-67
2022/01/20 02:25:23;;;;;;;10.13;8.17;;;;;;;2.18;72.15;100003.63;5025809;28;20944;-67
2022/01/20 02:27:51;;;;;;;10.90;8.20;;;;;;;0.53;76.22;100034.13;5026883;28;20223;-67
2022/01/20 02:30:19;;;;;;;10.57;8.20;;;;;;;2.25;71.98;99991.69;5026641;28;20707;-67
2022/01/20 02:32:57;;;;;;;11.53;7.77;;;;;;;1.33;74.17;100027.94;5025401;28;20234;-67
2022/01/20 02:35:28;;;;;;;10.70;8.30;;;;;;;1.38;75.22;100049.47;5026967;28;20240;-67
2022/01/20 02:38:22;;;;;;;10.47;8.30;;;;;;;-0.46;78.04;100009.81;5021749;28;20726;-66
2022/01/20 02:46:09;;;;;;;11.00;8.17;;;;;;;0.98;74.56;100015.41;5025179;28;20223;-67
2022/01/20 02:48:36;;;;;;;12.40;7.73;;;;;;;0.20;76.50;100011.75;5025113;28;20253;-66
2022/01/20 02:51:03;;;;;;;10.30;8.00;;;;;;;0.30;78.30;100032.13;5035555;28;20231;-66
2022/01/20 02:53:30;;;;;;;10.03;8.77;;;;;;;1.44;75.96;100035.13;5031704;28;20223;-67
2022/01/20 02:55:57;;;;;;;11.97;8.80;;;;;;;1.46;73.82;99999.88;5034873;28;20229;-67
2022/01/20 02:58:24;;;;;;;9.97;7.90;;;;;;;-0.11;79.51;100023.34;5026625;28;20233;-66
2022/01/20 03:00:52;;;;;;;9.97;7.67;;;;;;;-1.02;83.41;100009.69;5021695;28;20222;-66
2022/01/20 03:03:19;;;;;;;11.10;8.13;;;;;;;0.30;77.04;99990.97;5026208;28;20229;-66
2022/01/20 03:05:46;;;;;;;10.63;8.20;;;;;;;-0.77;82.57;100002.03;5034195;28;20234;-66
2022/01/20 03:08:13;;;;;;;11.33;8.00;;;;;;;-0.59;81.32;99992.22;5054153;28;20643;-66
2022/01/20 03:10:40;;;;;;;10.67;7.87;;;;;;;-0.24;81.29;100019.78;5065580;28;20221;-66
2022/01/20 03:13:07;;;;;;;8.67;7.70;;;;;;;-0.88;83.89;100015.78;5065567;28;20223;-66
2022/01/20 03:15:35;;;;;;;9.67;7.40;;;;;;;0.75;79.88;100017.78;5046221;28;20224;-66
2022/01/20 03:18:04;;;;;;;10.83;8.53;;;;;;;0.76;77.99;99998.47;5054177;28;20230;-66
2022/01/20 03:20:34;;;;;;;10.37;7.93;;;;;;;1.16;77.21;99985.28;5062839;28;20229;-66
2022/01/20 03:23:02;;;;;;;10.43;8.27;;;;;;;0.83;78.77;100015.50;5035213;28;20491;-66
2022/01/20 03:25:30;;;;;;;11.30;8.57;;;;;;;0.35;79.57;100024.81;5045524;28;20795;-66
2022/01/20 03:27:58;;;;;;;12.63;8.80;;;;;;;1.52;77.36;99988.94;5037990;28;20222;-66
2022/01/20 03:30:26;;;;;;;11.17;8.43;;;;;;;0.50;79.80;100023.81;5046132;28;20226;-66
2022/01/20 03:32:53;;;;;;;9.97;7.67;;;;;;;0.89;78.46;100009.00;5045254;28;20980;-66
2022/01/20 03:35:20;;;;;;;12.33;8.97;;;;;;;1.45;75.27;99960.53;5045549;28;20252;-66
2022/01/20 03:37:47;;;;;;;12.90;9.83;;;;;;;1.77;74.43;99945.13;5046030;28;20229;-66
2022/01/20 03:40:14;;;;;;;13.20;9.10;;;;;;;1.54;76.26;99973.06;5045743;28;20698;-66
2022/01/20 03:42:41;;;;;;;10.33;9.00;;;;;;;2.01;72.68;99920.63;5045531;28;20601;-66
2022/01/20 03:45:08;;;;;;;12.27;9.17;;;;;;;1.57;75.95;99973.69;5045534;28;20238;-66
2022/01/20 03:47:35;;;;;;;10.07;7.43;;;;;;;0.74;78.84;100020.50;5049143;28;20722;-66
2022/01/20 03:52:30;;;;;;;12.57;9.37;;;;;;;0.61;78.10;100015.25;5069386;28;20229;-66
2022/01/20 03:54:57;;;;;;;12.77;8.57;;;;;;;2.19;72.55;99931.56;5044482;28;20236;-66
2022/01/20 03:57:24;;;;;;;14.00;9.10;;;;;;;1.28;76.90;100022.16;5069352;28;20235;-66
2022/01/20 03:59:50;;;;;;;12.47;9.37;;;;;;;2.16;72.90;99953.72;5069420;28;20235;-66
2022/01/20 04:02:18;;;;;;;12.60;9.03;;;;;;;0.68;77.20;100010.44;5050264;28;20221;-66
2022/01/20 04:04:45;;;;;;;12.63;10.20;;;;;;;0.86;76.17;100008.34;5048646;28;20233;-66
2022/01/20 04:07:12;;;;;;;13.47;9.47;;;;;;;1.97;73.66;99974.41;5049824;28;20605;-66
2022/01/20 04:09:40;;;;;;;11.70;9.37;;;;;;;1.98;73.78;99966.41;5048717;28;20235;-66
2022/01/20 04:12:07;;;;;;;13.60;10.67;;;;;;;2.18;72.12;99957.06;5054827;28;20228;-66
2022/01/20 04:14:44;;;;;;;16.10;10.80;;;;;;;1.19;74.28;99989.47;5059836;28;20222;-65
2022/01/20 04:17:16;;;;;;;14.37;10.67;;;;;;;2.39;71.82;99946.72;5067762;28;20226;-66
2022/01/20 04:19:43;;;;;;;11.97;9.67;;;;;;;1.41;75.80;100020.34;5049332;28;20234;-66
2022/01/20 04:22:10;;;;;;;13.73;10.50;;;;;;;0.43;81.08;100060.09;5050139;28;20230;-66
2022/01/20 04:24:38;;;;;;;14.33;10.13;;;;;;;1.15;76.80;100020.38;5056112;28;20217;-66
2022/01/20 04:27:05;;;;;;;13.63;9.83;;;;;;;1.30;76.82;100012.38;5062248;28;20236;-66
2022/01/20 04:29:33;;;;;;;15.57;11.23;;;;;;;2.26;72.52;99951.25;5067789;28;20304;-66
2022/01/20 04:32:00;;;;;;;17.70;10.87;;;;;;;1.67;75.45;100013.31;5052223;28;20706;-66
2022/01/20 04:34:28;;;;;;;14.77;11.27;;;;;;;2.01;73.49;99979.34;5048708;28;20221;-69
2022/01/20 04:36:56;;;;;;;16.30;11.87;;;;;;;0.11;79.60;100049.06;5047829;28;20992;-70
2022/01/20 04:39:26;;;;;;;14.40;10.47;;;;;;;1.56;76.06;100021.94;5046201;28;20230;-66
2022/01/20 04:41:54;;;;;;;14.67;11.00;;;;;;;2.31;73.24;99976.28;5048215;28;20226;-67
2022/01/20 04:44:38;;;;;;;15.07;10.83;;;;;;;3.12;70.01;99963.19;5045013;28;20229;-66
2022/01/20 04:47:19;;;;;;;15.83;11.87;;;;;;;2.22;72.17;99976.94;5032004;28;22244;-66
2022/01/20 04:58:08;;;;;;;15.13;11.10;;;;;;;2.49;71.55;99947.75;5047328;28;20232;-66
2022/01/20 05:02:51;;;;;;;14.20;10.80;;;;;;;1.88;75.13;99989.91;5043858;27;20576;-66
2022/01/20 05:05:18;;;;;;;14.13;11.13;;;;;;;0.62;75.71;99981.03;5027785;28;20232;-66
2022/01/20 05:07:46;;;;;;;14.73;10.13;;;;;;;1.10;79.11;100040.84;5023437;28;20242;-67
2022/01/20 05:10:13;;;;;;;13.03;9.90;;;;;;;2.01;72.99;99947.78;5023728;28;20221;-67
2022/01/20 05:15:17;;;;;;;13.23;9.17;;;;;;;0.96;78.99;100040.94;5023367;28;20227;-66
2022/01/20 05:17:44;;;;;;;13.33;9.73;;;;;;;1.63;75.72;99982.09;5023170;28;20228;-65
2022/01/20 05:20:11;;;;;;;14.57;10.53;;;;;;;1.92;71.39;99922.13;5023849;28;20228;-66
2022/01/20 05:22:43;;;;;;;14.77;9.93;;;;;;;1.98;73.78;99950.63;5022793;28;20231;-67
2022/01/20 05:25:10;;;;;;;12.93;9.80;;;;;;;0.74;77.90;100029.25;5023493;28;20257;-66
2022/01/20 05:27:37;;;;;;;12.60;9.47;;;;;;;2.18;73.99;99966.75;5023397;28;20242;-68
2022/01/20 05:30:05;;;;;;;14.17;10.13;;;;;;;2.08;75.12;99979.75;5023734;28;20222;-67
2022/01/20 05:32:32;;;;;;;13.93;9.53;;;;;;;0.85;80.27;100043.44;5026289;28;20590;-67
2022/01/20 05:34:59;;;;;;;14.10;10.07;;;;;;;2.18;73.83;99932.53;5022739;28;20603;-66
2022/01/20 05:37:26;;;;;;;13.27;10.07;;;;;;;3.03;70.15;99911.19;5023328;28;20253;-67
2022/01/20 05:39:55;;;;;;;18.20;11.03;;;;;;;2.17;71.77;99917.69;5022884;28;20220;-67
2022/01/20 05:42:22;;;;;;;14.47;11.87;;;;;;;3.40;69.30;99909.16;5023046;28;20626;-67
2022/01/20 05:44:51;;;;;;;14.57;10.30;;;;;;;2.41;70.95;99917.66;5022028;28;20251;-67
2022/01/20 05:47:26;;;;;;;13.47;9.77;;;;;;;2.68;71.05;99939.28;5023161;28;20274;-67
2022/01/20 05:49:56;;;;;;;13.53;9.80;;;;;;;3.29;69.41;99932.88;5023111;28;20925;-67
2022/01/20 05:52:23;;;;;;;14.93;10.63;;;;;;;3.10;69.43;99930.00;5022789;28;20683;-67
2022/01/20 05:54:50;;;;;;;15.47;10.80;;;;;;;3.20;69.06;99928.31;5021581;28;20229;-66
2022/01/20 05:57:17;;;;;;;13.73;9.93;;;;;;;3.28;68.54;99927.72;5022480;28;20230;-66
2022/01/20 05:59:44;;;;;;;15.43;9.50;;;;;;;2.93;69.16;99932.13;5041388;28;20228;-66
2022/01/20 06:02:27;;;;;;;13.73;10.50;;;;;;;2.77;69.88;99935.13;5028403;28;20234;-66
2022/01/20 06:04:54;;;;;;;14.87;10.63;;;;;;;3.34;68.16;99943.94;5022246;28;20275;-66
2022/01/20 06:07:21;;;;;;;13.37;10.07;;;;;;;3.13;68.70;99937.66;5022440;28;20241;-66
2022/01/20 06:09:48;;;;;;;14.90;9.87;;;;;;;3.05;68.92;99952.28;5022325;28;20234;-66
2022/01/20 06:12:15;;;;;;;15.73;10.73;;;;;;;2.84;69.64;99954.75;5020795;28;20361;-66
2022/01/20 06:14:42;;;;;;;13.60;10.27;;;;;;;3.60;67.28;99952.41;5008028;28;20511;-66
2022/01/20 06:17:08;;;;;;;12.80;9.67;;;;;;;2.80;69.96;99963.03;5009752;28;20238;-65
2022/01/20 06:19:36;;;;;;;13.47;10.37;;;;;;;2.69;69.76;99956.75;5009056;28;20231;-65
2022/01/20 06:22:03;;;;;;;13.60;9.33;;;;;;;2.63;70.95;99993.25;5009166;28;20708;-66
2022/01/20 06:24:30;;;;;;;13.77;10.17;;;;;;;2.40;71.42;99990.53;5008834;28;20231;-65
2022/01/20 06:26:58;;;;;;;13.73;10.50;;;;;;;2.33;71.73;99988.50;5008182;28;21811;-65
2022/01/20 06:29:25;;;;;;;15.67;9.97;;;;;;;2.54;70.73;99962.34;5009209;28;20240;-65
2022/01/20 06:31:52;;;;;;;15.17;10.20;;;;;;;2.31;71.57;99973.63;5013208;28;20772;-66
2022/01/20 06:34:19;;;;;;;12.07;9.40;;;;;;;2.50;70.59;99948.56;5008917;28;20683;-65
2022/01/20 06:36:47;;;;;;;15.43;10.90;;;;;;;2.31;71.20;99951.75;5008118;28;20229;-66
2022/01/20 06:39:14;;;;;;;14.60;10.67;;;;;;;2.35;71.40;99960.25;5009108;28;20230;-65
2022/01/20 06:41:45;;;;;;;12.37;9.43;;;;;;;2.54;70.86;99964.97;5009051;28;21207;-65
2022/01/20 06:44:12;;;;;;;15.03;11.23;;;;;;;2.84;69.76;99961.84;5008969;28;20229;-65
2022/01/20 06:46:39;;;;;;;16.77;12.10;;;;;;;2.87;69.78;99958.97;5008187;28;20239;-65
2022/01/20 06:49:06;;;;;;;18.10;12.53;;;;;;;2.72;69.78;99952.22;5008491;28;20235;-65
2022/01/20 06:51:33;;;;;;;16.13;12.37;;;;;;;2.54;70.20;99962.34;5008925;28;20243;-65
2022/01/20 06:54:00;;;;;;;17.47;12.40;;;;;;;2.02;72.08;99988.06;5008368;28;20239;-65
2022/01/20 06:56:27;;;;;;;15.37;10.40;;;;;;;2.35;70.30;99987.41;5008810;28;20229;-66
2022/01/20 06:59:11;;;;;;;17.03;10.93;;;;;;;2.64;69.94;99998.41;5007555;28;20756;-66
2022/01/20 07:01:40;;;;;;;17.17;12.73;;;;;;;2.97;68.81;99988.09;5012204;28;20898;-66
2022/01/20 07:04:10;;;;;;;18.53;13.27;;;;;;;2.86;69.08;99988.91;5008559;28;20232;-65
2022/01/20 07:06:37;;;;;;;17.93;11.37;;;;;;;2.38;70.88;100010.88;5007719;28;20775;-65
2022/01/20 07:09:04;;;;;;;16.90;11.53;;;;;;;2.85;69.61;100013.59;5008615;28;20235;-65
2022/01/20 07:11:31;;;;;;;17.10;12.10;;;;;;;2.54;69.84;100017.66;5008276;28;20232;-65
2022/01/20 07:13:58;;;;;;;21.60;12.50;;;;;;;2.66;69.35;100009.69;5005473;28;20224;-65
2022/01/20 07:16:25;;;;;;;16.87;11.33;;;;;;;2.43;70.29;100018.47;5007838;28;20231;-66
2022/01/20 07:18:52;;;;;;;17.63;12.47;;;;;;;3.07;68.48;100015.44;5007512;28;20606;-66
2022/01/20 07:21:19;;;;;;;14.90;12.10;;;;;;;2.81;68.91;100015.59;5007963;28;20227;-66
2022/01/20 07:23:47;;;;;;;15.93;11.07;;;;;;;2.64;69.44;100024.75;5006718;28;20224;-66
2022/01/20 07:26:14;;;;;;;16.67;11.50;;;;;;;2.21;69.82;100014.75;5007270;28;20219;-65
2022/01/20 07:28:41;;;;;;;19.10;13.80;;;;;;;2.78;67.89;100015.84;5004544;28;20244;-66
2022/01/20 07:31:08;;;;;;;17.43;12.37;;;;;;;3.13;68.43;100049.22;5009857;28;20230;-65
2022/01/20 07:33:35;;;;;;;16.63;12.47;;;;;;;2.69;69.34;100061.28;5009519;28;20233;-66
2022/01/20 07:36:04;;;;;;;21.43;14.43;;;;;;;2.75;68.75;100052.09;5007215;28;20227;-66
2022/01/20 07:38:31;;;;;;;21.63;15.50;;;;;;;3.06;68.57;100077.81;5006960;28;20293;-65
2022/01/20 07:40:58;;;;;;;20.23;14.57;;;;;;;3.34;67.67;100085.50;5006631;28;20800;-66
2022/01/20 07:43:25;;;;;;;18.63;11.63;;;;;;;3.10;68.39;100075.81;5012317;28;20228;-66
2022/01/20 07:45:52;;;;;;;21.20;12.33;;;;;;;3.27;68.24;100078.97;5009533;28;20229;-66
2022/01/20 07:48:19;;;;;;;18.90;12.40;;;;;;;3.04;68.32;100071.84;5007753;28;20238;-65
2022/01/20 07:50:45;;;;;;;18.77;12.60;;;;;;;3.22;68.05;100071.44;5005867;28;20269;-66
2022/01/20 07:53:12;;;;;;;16.43;11.63;;;;;;;2.99;68.57;100067.88;5007275;28;20750;-66
2022/01/20 07:55:39;;;;;;;19.37;13.00;;;;;;;3.55;67.07;100080.38;5006596;28;20241;-65
2022/01/20 07:58:06;;;;;;;19.13;13.57;;;;;;;3.33;68.09;100083.81;5007852;28;20239;-65
2022/01/20 08:00:34;;;;;;;17.70;11.83;;;;;;;3.41;66.97;100057.69;5011302;28;20234;-66
2022/01/20 08:03:01;;;;;;;24.07;11.53;;;;;;;3.31;67.67;100059.34;5007060;28;20243;-66
2022/01/20 08:05:28;;;;;;;19.20;11.87;;;;;;;3.18;68.43;100077.88;5007953;28;20236;-66
2022/01/20 08:07:55;;;;;;;17.80;11.93;;;;;;;3.25;67.53;100071.16;5007268;28;20228;-66
2022/01/20 08:10:22;;;;;;;17.23;11.60;;;;;;;2.91;68.77;100075.50;5007112;28;20604;-66
2022/01/20 08:12:49;;;;;;;22.57;11.83;;;;;;;3.33;67.47;100091.72;5006370;28;20251;-65
2022/01/20 08:15:16;;;;;;;22.20;14.20;;;;;;;3.57;66.31;100078.44;5007516;28;20234;-66
2022/01/20 08:17:43;;;;;;;18.10;13.03;;;;;;;3.13;66.97;100059.75;5007201;28;20240;-66
2022/01/20 08:20:11;;;;;;;20.30;13.47;;;;;;;3.37;66.94;100079.97;5007159;28;20231;-65
2022/01/20 08:22:38;;;;;;;22.97;12.97;;;;;;;3.40;67.57;100085.00;5006844;28;20232;-66
2022/01/20 08:25:13;;;;;;;22.10;12.93;;;;;;;2.97;68.43;100086.44;5005044;28;20239;-66
2022/01/20 08:27:42;;;;;;;20.87;12.40;;;;;;;2.93;68.92;100113.97;5007093;28;20228;-66
2022/01/20 08:30:12;;;;;;;17.77;11.30;;;;;;;2.91;69.20;100109.78;5008222;28;20236;-66
2022/01/20 08:32:39;;;;;;;18.23;10.87;;;;;;;2.86;69.30;100105.69;5009080;28;20224;-66
2022/01/20 08:35:09;;;;;;;15.40;11.67;;;;;;;3.13;69.18;100119.56;5006933;28;20232;-65
2022/01/20 08:37:40;;;;;;;17.80;12.23;;;;;;;2.90;70.21;100118.63;5006449;28;20251;-66
2022/01/20 08:40:11;;;;;;;23.40;11.60;;;;;;;2.97;69.77;100111.97;5007171;28;20235;-65
2022/01/20 08:42:39;;;;;;;20.30;10.87;;;;;;;2.94;69.15;100099.00;5006260;28;20228;-65
2022/01/20 08:45:08;;;;;;;16.27;11.43;;;;;;;2.97;69.35;100102.25;5006846;28;20232;-66
2022/01/20 08:47:35;;;;;;;14.63;9.70;;;;;;;1.11;73.27;100108.25;5006476;28;20231;-65
2022/01/20 08:50:05;;;;;;;18.10;10.33;;;;;;;2.02;71.77;100117.00;5006715;28;20228;-66
2022/01/20 08:52:32;;;;;;;28.97;10.57;;;;;;;3.28;69.55;100134.22;5006726;28;20229;-66
2022/01/20 08:54:59;;;;;;;15.67;10.93;;;;;;;3.51;67.77;100108.78;4994951;28;20232;-65
2022/01/20 08:57:27;;;;;;;20.53;10.07;;;;;;;3.59;67.15;100116.94;5006908;28;20734;-66
2022/01/20 08:59:55;;;;;;;16.97;11.77;;;;;;;3.04;68.32;100118.44;5006482;28;20228;-66
2022/01/20 09:02:22;;;;;;;22.27;11.37;;;;;;;2.59;70.84;100158.56;5010641;28;20231;-65
2022/01/20 09:04:50;;;;;;;18.53;10.73;;;;;;;3.45;68.59;100142.69;5005526;28;20668;-65
2022/01/20 09:07:17;;;;;;;21.20;10.90;;;;;;;2.25;70.87;100132.00;5006800;28;20240;-66
2022/01/20 09:09:47;;;;;;;16.63;10.27;;;;;;;3.52;67.95;100146.53;5006192;28;20229;-66
2022/01/20 09:18:01;;;;;;;23.13;10.57;;;;;;;3.83;67.67;100130.97;5005340;28;20233;-66
2022/01/20 09:20:28;;;;;;;18.43;11.33;;;;;;;3.69;67.51;100110.94;5006850;28;20664;-65
2022/01/20 09:22:56;;;;;;;17.67;10.50;;;;;;;3.14;70.24;100151.06;5005624;28;20246;-66
2022/01/20 09:25:24;;;;;;;19.10;11.57;;;;;;;3.02;70.99;100155.47;5007881;28;20234;-66
2022/01/20 09:27:52;;;;;;;18.03;11.27;;;;;;;3.85;67.94;100129.94;5010312;28;20226;-66
2022/01/20 09:30:21;;;;;;;16.50;10.47;;;;;;;3.40;68.45;100106.13;5007594;28;20228;-66
2022/01/20 09:35:37;;;;;;;22.00;10.83;;;;;;;2.08;74.68;100161.31;5003560;28;20229;-65
2022/01/20 09:38:05;;;;;;;16.63;9.70;;;;;;;2.88;71.87;100124.00;5005933;28;20233;-65
2022/01/20 09:40:35;;;;;;;17.20;10.43;;;;;;;2.76;70.96;100114.38;5005833;28;20227;-66
2022/01/20 09:43:04;;;;;;;21.10;11.20;;;;;;;3.97;67.23;100104.38;5003587;28;20244;-66
2022/01/20 09:45:31;;;;;;;16.60;10.70;;;;;;;3.83;67.43;100092.25;5006291;28;20225;-66
2022/01/20 09:48:00;;;;;;;21.63;12.20;;;;;;;3.56;68.58;100109.25;4999388;28;20225;-65
2022/01/20 09:50:29;;;;;;;17.67;10.50;;;;;;;2.16;70.72;100108.13;5009372;28;20262;-65
2022/01/20 09:53:01;;;;;;;18.17;10.47;;;;;;;3.90;68.58;100129.56;5009451;28;20229;-65
2022/01/20 09:55:32;;;;;;;20.00;10.73;;;;;;;2.66;72.87;100174.78;5009544;28;20239;-66
2022/01/20 09:57:59;;;;;;;18.53;10.33;;;;;;;3.68;69.27;100131.22;5009881;28;20228;-66
2022/01/20 10:00:26;;;;;;;23.87;10.07;;;;;;;1.46;72.70;100123.44;5013165;28;20401;-65
2022/01/20 10:02:57;;;;;;;17.53;10.30;;;;;;;3.27;71.43;100156.28;5009308;28;20244;-66
2022/01/20 10:05:27;;;;;;;21.23;11.53;;;;;;;3.04;72.84;100171.16;5010101;28;20233;-66
2022/01/20 10:08:00;;;;;;;16.27;10.10;;;;;;;4.03;68.75;100126.78;5009085;28;20244;-66
2022/01/20 10:11:00;;;;;;;18.57;10.47;;;;;;;3.00;72.93;100169.69;5007937;28;20224;-65
2022/01/20 10:13:33;;;;;;;20.83;9.50;;;;;;;3.58;70.66;100144.28;4991837;28;21702;-65
2022/01/20 10:16:04;;;;;;;19.23;9.80;;;;;;;3.28;71.37;100152.69;5006606;28;20221;-66
2022/01/20 10:18:33;;;;;;;19.80;10.10;;;;;;;3.61;70.64;100143.22;5008928;28;20811;-66
2022/01/20 10:21:03;;;;;;;15.47;10.43;;;;;;;3.60;70.82;100154.72;5005933;28;20933;-66
2022/01/20 10:23:30;;;;;;;18.23;10.33;;;;;;;1.92;75.92;100203.63;5008431;28;20233;-65
2022/01/20 10:26:24;;;;;;;23.93;10.83;;;;;;;2.73;73.75;100186.56;5009020;28;20586;-66
2022/01/20 10:29:03;;;;;;;17.57;9.70;;;;;;;3.93;69.31;100145.19;5007346;28;20229;-66
2022/01/20 10:31:40;;;;;;;17.70;8.47;;;;;;;3.76;69.10;100120.94;5013600;28;20735;-65
2022/01/20 10:34:33;;;;;;;28.03;13.00;;;;;;;4.06;68.22;100123.91;5008343;28;20230;-66
2022/01/20 10:37:07;;;;;;;27.47;13.47;;;;;;;4.13;67.81;100149.72;5006746;28;20845;-66
2022/01/20 10:39:43;;;;;;;23.50;12.67;;;;;;;3.84;68.52;100133.50;5006472;28;20255;-65
2022/01/20 10:42:12;;;;;;;19.43;11.53;;;;;;;4.38;67.21;100153.06;5008604;28;20611;-64
2022/01/20 10:44:51;;;;;;;14.70;10.80;;;;;;;4.30;67.40;100153.69;5007565;28;20239;-66
2022/01/20 10:47:28;;;;;;;23.47;11.57;;;;;;;4.29;67.30;100130.03;5007283;28;20228;-66
2022/01/20 10:50:30;;;;;;;20.27;10.17;;;;;;;4.43;66.62;100137.69;5007200;28;20225;-65
2022/01/20 10:52:57;;;;;;;25.13;11.30;;;;;;;4.83;66.29;100155.63;4972615;28;20250;-66
2022/01/20 10:55:34;;;;;;;18.03;10.33;;;;;;;4.47;66.88;100125.94;5009363;28;20220;-66
2022/01/20 10:58:20;;;;;;;16.80;11.10;;;;;;;4.93;65.87;100144.34;5008442;28;20232;-66
2022/01/20 11:03:51;;;;;;;23.57;11.17;;;;;;;3.02;72.29;100192.34;5060687;28;20949;-67
2022/01/20 11:06:19;;;;;;;25.40;11.67;;;;;;;3.45;70.12;100148.81;5044146;28;20229;-67
2022/01/20 11:08:46;;;;;;;19.80;10.83;;;;;;;3.17;70.81;100150.84;5041564;28;20237;-65
2022/01/20 11:11:14;;;;;;;25.53;11.13;;;;;;;3.17;70.77;100156.13;5024355;28;20238;-67
2022/01/20 11:13:41;;;;;;;20.13;9.23;;;;;;;2.89;70.85;100149.41;5023287;28;20233;-66
2022/01/20 11:16:08;;;;;;;20.73;10.07;;;;;;;3.45;69.83;100153.25;5023879;28;20220;-67
2022/01/20 11:18:37;;;;;;;20.20;10.50;;;;;;;3.46;69.11;100137.31;5023559;28;20232;-67
2022/01/20 11:21:05;;;;;;;21.77;9.63;;;;;;;3.49;69.42;100137.06;5023639;28;20232;-67
2022/01/20 11:23:41;;;;;;;18.63;10.20;;;;;;;3.40;69.22;100130.69;5022837;28;20220;-66
2022/01/20 11:26:08;;;;;;;16.57;8.87;;;;;;;3.55;68.85;100117.28;5023321;28;20225;-67
2022/01/20 11:28:35;;;;;;;18.17;10.03;;;;;;;3.91;68.26;100140.00;5023234;28;20235;-66
2022/01/20 11:31:08;;;;;;;24.10;11.73;;;;;;;3.49;68.89;100123.88;5024210;28;20224;-66
2022/01/20 11:33:38;;;;;;;20.87;10.60;;;;;;;3.81;68.36;100139.06;5023969;28;20609;-65
2022/01/20 11:36:19;;;;;;;18.10;9.73;;;;;;;3.26;69.34;100136.13;5024882;28;20600;-66
2022/01/20 11:39:06;;;;;;;19.03;10.00;;;;;;;3.57;69.27;100136.47;5023691;28;20598;-70
2022/01/20 11:41:35;;;;;;;15.53;9.20;;;;;;;3.36;69.53;100145.06;5024245;28;20683;-70
2022/01/20 11:44:20;;;;;;;12.53;8.90;;;;;;;3.47;68.75;100122.31;5023878;28;20224;-70
2022/01/20 11:46:50;;;;;;;13.33;8.20;;;;;;;3.55;69.18;100117.28;5023626;28;20235;-66
2022/01/20 11:49:19;;;;;;;14.70;8.60;;;;;;;3.61;68.57;100103.66;5023369;28;20228;-66
2022/01/20 11:51:51;;;;;;;18.67;9.17;;;;;;;3.91;67.73;100105.69;5023340;28;20226;-66
2022/01/20 11:54:30;;;;;;;13.00;7.57;;;;;;;4.07;67.16;100107.13;5022159;28;20221;-67
2022/01/20 11:57:07;;;;;;;16.27;7.57;;;;;;;4.01;66.24;100076.75;5022736;28;20235;-66
2022/01/20 11:59:40;;;;;;;14.93;7.20;;;;;;;3.86;68.32;100104.38;5021093;28;20228;-66
2022/01/20 12:02:08;;;;;;;11.77;7.50;;;;;;;3.65;67.86;100088.41;5022967;28;20592;-66
2022/01/20 12:04:41;;;;;;;12.17;7.17;;;;;;;4.19;67.04;100076.28;5022175;28;20228;-66
2022/01/20 12:07:09;;;;;;;11.83;6.00;;;;;;;3.92;67.12;100065.13;5021470;28;20241;-66
2022/01/20 12:09:40;;;;;;;15.87;7.13;;;;;;;4.52;66.04;100093.88;5022694;28;20229;-67
2022/01/20 12:12:22;;;;;;;13.47;7.23;;;;;;;3.98;66.16;100053.28;5022571;28;20230;-66
2022/01/20 12:14:49;;;;;;;10.10;5.83;;;;;;;4.24;65.59;100082.03;5011108;28;20705;-66
2022/01/20 12:17:16;;;;;;;8.17;5.80;;;;;;;4.47;64.37;100086.31;5009378;28;20231;-66
2022/01/20 12:19:53;;;;;;;10.40;6.00;;;;;;;4.81;63.04;100101.22;5008236;28;20229;-66
2022/01/20 12:22:20;;;;;;;5.43;3.60;;;;;;;4.19;62.98;100115.88;5009534;28;20233;-66
2022/01/20 12:24:52;;;;;;;5.03;3.33;;;;;;;3.37;65.15;100152.03;5015676;28;20604;-66
2022/01/20 12:27:21;;;;;;;4.77;2.73;;;;;;;2.52;66.85;100190.75;5027847;28;20271;-66
2022/01/20 12:29:48;;;;;;;4.23;2.70;;;;;;;2.24;68.08;100211.09;5028686;28;20798;-66
2022/01/20 12:32:19;;;;;;;3.80;2.83;;;;;;;2.46;66.88;100199.91;5011032;28;20227;-66
2022/01/20 12:35:03;;;;;;;3.43;2.80;;;;;;;2.01;68.61;100208.28;5007945;28;20612;-66
2022/01/20 12:37:38;;;;;;;2.53;2.33;;;;;;;0.91;70.86;100219.88;5007854;28;20227;-66
2022/01/20 12:40:19;;;;;;;2.33;2.13;;;;;;;0.82;71.57;100249.34;5009048;28;20738;-66
2022/01/20 12:42:48;;;;;;;3.60;2.33;;;;;;;1.66;69.08;100223.81;5008368;28;20235;-66
2022/01/20 12:48:16;;;;;;;6.37;2.40;;;;;;;2.56;65.03;100174.63;5009203;28;20231;-66
2022/01/20 12:51:02;;;;;;;5.23;3.40;;;;;;;3.14;64.23;100166.06;5008570;28;20232;-66
2022/01/20 12:53:36;;;;;;;3.47;2.70;;;;;;;2.78;64.64;100184.44;5008114;28;20244;-66
2022/01/20 12:56:05;;;;;;;5.03;2.70;;;;;;;3.42;63.74;100170.13;5009278;28;20232;-66